sensor_id;sensor_type;location;lat;lon;timestamp;P1;P2;P0
78678;PMS5003;67994;59.334;13.528;2024-03-02T00:00:00;28.2;22.3;
78678;PMS5003;67994;59.334;13.528;2024-03-02T00:01:00;28.2;22.3;
78678;PMS5003;67994;59.334;13.528;2024-03-02T00:02:01;28.2;22.3;
78678;PMS5003;67994;59.334;13.528;2024-03-02T00:03:00;29.4;22.2;
78678;PMS5003;67994;59.334;13.528;2024-03-02T00:04:00;29.4;22.2;
78678;PMS5003;67994;59.334;13.528;2024-03-02T00:05:00;29.4;22.2;
78678;PMS5003;67994;59.334;13.528;2024-03-02T00:06:00;29.4;22.2;
78678;PMS5003;67994;59.334;13.528;2024-03-02T00:07:00;29.4;22.2;
78678;PMS5003;67994;59.334;13.528;2024-03-02T00:08:01;32.9;26.5;
78678;PMS5003;67994;59.334;13.528;2024-03-02T00:09:00;32.9;26.5;
78678;PMS5003;67994;59.334;13.528;2024-03-02T00:10:01;32.9;26.5;
78678;PMS5003;67994;59.334;13.528;2024-03-02T00:11:01;32.9;26.5;
78678;PMS5003;67994;59.334;13.528;2024-03-02T00:12:01;32.9;26.5;
78678;PMS5003;67994;59.334;13.528;2024-03-02T00:13:00;21.6;21.6;
78678;PMS5003;67994;59.334;13.528;2024-03-02T00:14:00;21.6;21.6;
78678;PMS5003;67994;59.334;13.528;2024-03-02T00:15:00;21.6;21.6;
78678;PMS5003;67994;59.334;13.528;2024-03-02T00:16:00;21.6;21.6;
78678;PMS5003;67994;59.334;13.528;2024-03-02T00:17:01;21.6;21.6;
78678;PMS5003;67994;59.334;13.528;2024-03-02T00:18:00;29.2;24.4;
78678;PMS5003;67994;59.334;13.528;2024-03-02T00:19:01;29.2;24.4;
78678;PMS5003;67994;59.334;13.528;2024-03-02T00:20:00;29.2;24.4;
78678;PMS5003;67994;59.334;13.528;2024-03-02T00:21:01;29.2;24.4;
78678;PMS5003;67994;59.334;13.528;2024-03-02T00:22:00;29.2;24.4;
78678;PMS5003;67994;59.334;13.528;2024-03-02T00:23:02;28.6;23.2;
78678;PMS5003;67994;59.334;13.528;2024-03-02T00:24:01;28.6;23.2;
78678;PMS5003;67994;59.334;13.528;2024-03-02T00:25:01;28.6;23.2;
78678;PMS5003;67994;59.334;13.528;2024-03-02T00:26:00;28.6;23.2;
78678;PMS5003;67994;59.334;13.528;2024-03-02T00:27:01;28.6;23.2;
78678;PMS5003;67994;59.334;13.528;2024-03-02T00:28:02;22.8;17.4;
78678;PMS5003;67994;59.334;13.528;2024-03-02T00:29:00;22.8;17.4;
78678;PMS5003;67994;59.334;13.528;2024-03-02T00:30:01;22.8;17.4;
78678;PMS5003;67994;59.334;13.528;2024-03-02T00:31:02;22.8;17.4;
78678;PMS5003;67994;59.334;13.528;2024-03-02T00:32:00;22.8;17.4;
78678;PMS5003;67994;59.334;13.528;2024-03-02T00:33:01;32.5;22.5;
78678;PMS5003;67994;59.334;13.528;2024-03-02T00:34:00;32.5;22.5;
78678;PMS5003;67994;59.334;13.528;2024-03-02T00:35:00;32.5;22.5;
78678;PMS5003;67994;59.334;13.528;2024-03-02T00:36:01;32.5;22.5;
78678;PMS5003;67994;59.334;13.528;2024-03-02T00:37:00;32.5;22.5;
78678;PMS5003;67994;59.334;13.528;2024-03-02T00:38:03;28.8;22.3;
78678;PMS5003;67994;59.334;13.528;2024-03-02T00:39:01;28.8;22.3;
78678;PMS5003;67994;59.334;13.528;2024-03-02T00:40:00;28.8;22.3;
78678;PMS5003;67994;59.334;13.528;2024-03-02T00:41:03;28.8;22.3;
78678;PMS5003;67994;59.334;13.528;2024-03-02T00:42:01;28.8;22.3;
78678;PMS5003;67994;59.334;13.528;2024-03-02T00:43:00;25.8;22.8;
78678;PMS5003;67994;59.334;13.528;2024-03-02T00:44:01;25.8;22.8;
78678;PMS5003;67994;59.334;13.528;2024-03-02T00:45:00;25.8;22.8;
78678;PMS5003;67994;59.334;13.528;2024-03-02T00:46:00;25.8;22.8;
78678;PMS5003;67994;59.334;13.528;2024-03-02T00:47:01;25.8;22.8;
78678;PMS5003;67994;59.334;13.528;2024-03-02T00:48:01;31.4;22.9;
78678;PMS5003;67994;59.334;13.528;2024-03-02T00:49:01;31.4;22.9;
78678;PMS5003;67994;59.334;13.528;2024-03-02T00:50:00;31.4;22.9;
78678;PMS5003;67994;59.334;13.528;2024-03-02T00:51:01;31.4;22.9;
78678;PMS5003;67994;59.334;13.528;2024-03-02T00:52:00;31.4;22.9;
78678;PMS5003;67994;59.334;13.528;2024-03-02T00:53:01;26.2;18.3;
78678;PMS5003;67994;59.334;13.528;2024-03-02T00:54:00;26.2;18.3;
78678;PMS5003;67994;59.334;13.528;2024-03-02T00:55:00;26.2;18.3;
78678;PMS5003;67994;59.334;13.528;2024-03-02T00:56:01;26.2;18.3;
78678;PMS5003;67994;59.334;13.528;2024-03-02T00:57:00;26.2;18.3;
78678;PMS5003;67994;59.334;13.528;2024-03-02T00:58:00;20.5;18.6;
78678;PMS5003;67994;59.334;13.528;2024-03-02T00:59:00;20.5;18.6;
78678;PMS5003;67994;59.334;13.528;2024-03-02T01:00:00;20.5;18.6;
78678;PMS5003;67994;59.334;13.528;2024-03-02T01:01:00;20.5;18.6;
78678;PMS5003;67994;59.334;13.528;2024-03-02T01:02:00;20.5;18.6;
78678;PMS5003;67994;59.334;13.528;2024-03-02T01:03:00;28.5;23.7;
78678;PMS5003;67994;59.334;13.528;2024-03-02T01:04:00;28.5;23.7;
78678;PMS5003;67994;59.334;13.528;2024-03-02T01:05:00;28.5;23.7;
78678;PMS5003;67994;59.334;13.528;2024-03-02T01:06:00;28.5;23.7;
78678;PMS5003;67994;59.334;13.528;2024-03-02T01:07:00;28.5;23.7;
78678;PMS5003;67994;59.334;13.528;2024-03-02T01:08:00;22.5;21.4;
78678;PMS5003;67994;59.334;13.528;2024-03-02T01:09:00;22.5;21.4;
78678;PMS5003;67994;59.334;13.528;2024-03-02T01:10:00;22.5;21.4;
78678;PMS5003;67994;59.334;13.528;2024-03-02T01:11:00;22.5;21.4;
78678;PMS5003;67994;59.334;13.528;2024-03-02T01:12:00;22.5;21.4;
78678;PMS5003;67994;59.334;13.528;2024-03-02T01:13:00;25.0;20.7;
78678;PMS5003;67994;59.334;13.528;2024-03-02T01:14:00;25.0;20.7;
78678;PMS5003;67994;59.334;13.528;2024-03-02T01:15:00;25.0;20.7;
78678;PMS5003;67994;59.334;13.528;2024-03-02T01:16:00;25.0;20.7;
78678;PMS5003;67994;59.334;13.528;2024-03-02T01:17:00;25.0;20.7;
78678;PMS5003;67994;59.334;13.528;2024-03-02T01:18:00;26.5;22.5;
78678;PMS5003;67994;59.334;13.528;2024-03-02T01:19:00;26.5;22.5;
78678;PMS5003;67994;59.334;13.528;2024-03-02T01:20:00;26.5;22.5;
78678;PMS5003;67994;59.334;13.528;2024-03-02T01:21:00;26.5;22.5;
78678;PMS5003;67994;59.334;13.528;2024-03-02T01:22:00;26.5;22.5;
78678;PMS5003;67994;59.334;13.528;2024-03-02T01:23:00;24.0;22.9;
78678;PMS5003;67994;59.334;13.528;2024-03-02T01:24:00;24.0;22.9;
78678;PMS5003;67994;59.334;13.528;2024-03-02T01:25:00;24.0;22.9;
78678;PMS5003;67994;59.334;13.528;2024-03-02T01:26:00;24.0;22.9;
78678;PMS5003;67994;59.334;13.528;2024-03-02T01:27:00;24.0;22.9;
78678;PMS5003;67994;59.334;13.528;2024-03-02T01:28:00;24.9;17.4;
78678;PMS5003;67994;59.334;13.528;2024-03-02T01:29:00;24.9;17.4;
78678;PMS5003;67994;59.334;13.528;2024-03-02T01:30:00;24.9;17.4;
78678;PMS5003;67994;59.334;13.528;2024-03-02T01:31:00;24.9;17.4;
78678;PMS5003;67994;59.334;13.528;2024-03-02T01:32:00;24.9;17.4;
78678;PMS5003;67994;59.334;13.528;2024-03-02T01:33:00;28.6;25.6;
78678;PMS5003;67994;59.334;13.528;2024-03-02T01:34:00;28.6;25.6;
78678;PMS5003;67994;59.334;13.528;2024-03-02T01:35:00;28.6;25.6;
78678;PMS5003;67994;59.334;13.528;2024-03-02T01:36:00;28.6;25.6;
78678;PMS5003;67994;59.334;13.528;2024-03-02T01:37:01;28.6;25.6;
78678;PMS5003;67994;59.334;13.528;2024-03-02T01:38:00;25.8;20.8;
78678;PMS5003;67994;59.334;13.528;2024-03-02T01:39:00;25.8;20.8;
78678;PMS5003;67994;59.334;13.528;2024-03-02T01:40:00;25.8;20.8;
78678;PMS5003;67994;59.334;13.528;2024-03-02T01:41:01;25.8;20.8;
78678;PMS5003;67994;59.334;13.528;2024-03-02T01:42:01;25.8;20.8;
78678;PMS5003;67994;59.334;13.528;2024-03-02T01:43:00;22.0;19.0;
78678;PMS5003;67994;59.334;13.528;2024-03-02T01:44:00;22.0;19.0;
78678;PMS5003;67994;59.334;13.528;2024-03-02T01:45:00;22.0;19.0;
78678;PMS5003;67994;59.334;13.528;2024-03-02T01:46:00;22.0;19.0;
78678;PMS5003;67994;59.334;13.528;2024-03-02T01:47:01;22.0;19.0;
78678;PMS5003;67994;59.334;13.528;2024-03-02T01:48:01;27.4;21.0;
78678;PMS5003;67994;59.334;13.528;2024-03-02T01:49:00;27.4;21.0;
78678;PMS5003;67994;59.334;13.528;2024-03-02T01:50:00;27.4;21.0;
78678;PMS5003;67994;59.334;13.528;2024-03-02T01:51:00;27.4;21.0;
78678;PMS5003;67994;59.334;13.528;2024-03-02T01:52:00;27.4;21.0;
78678;PMS5003;67994;59.334;13.528;2024-03-02T01:53:00;39.0;28.5;
78678;PMS5003;67994;59.334;13.528;2024-03-02T01:54:00;39.0;28.5;
78678;PMS5003;67994;59.334;13.528;2024-03-02T01:55:00;39.0;28.5;
78678;PMS5003;67994;59.334;13.528;2024-03-02T01:56:00;39.0;28.5;
78678;PMS5003;67994;59.334;13.528;2024-03-02T01:57:01;39.0;28.5;
78678;PMS5003;67994;59.334;13.528;2024-03-02T01:58:00;33.3;26.1;
78678;PMS5003;67994;59.334;13.528;2024-03-02T01:59:01;33.3;26.1;
78678;PMS5003;67994;59.334;13.528;2024-03-02T02:00:00;33.3;26.1;
78678;PMS5003;67994;59.334;13.528;2024-03-02T02:01:01;33.3;26.1;
78678;PMS5003;67994;59.334;13.528;2024-03-02T02:02:00;33.3;26.1;
78678;PMS5003;67994;59.334;13.528;2024-03-02T02:03:00;33.9;23.2;
78678;PMS5003;67994;59.334;13.528;2024-03-02T02:04:00;33.9;23.2;
78678;PMS5003;67994;59.334;13.528;2024-03-02T02:05:00;33.9;23.2;
78678;PMS5003;67994;59.334;13.528;2024-03-02T02:06:00;33.9;23.2;
78678;PMS5003;67994;59.334;13.528;2024-03-02T02:07:00;33.9;23.2;
78678;PMS5003;67994;59.334;13.528;2024-03-02T02:08:01;27.8;23.5;
78678;PMS5003;67994;59.334;13.528;2024-03-02T02:09:00;27.8;23.5;
78678;PMS5003;67994;59.334;13.528;2024-03-02T02:10:00;27.8;23.5;
78678;PMS5003;67994;59.334;13.528;2024-03-02T02:11:00;27.8;23.5;
78678;PMS5003;67994;59.334;13.528;2024-03-02T02:12:00;27.8;23.5;
78678;PMS5003;67994;59.334;13.528;2024-03-02T02:13:00;26.2;20.3;
78678;PMS5003;67994;59.334;13.528;2024-03-02T02:14:00;26.2;20.3;
78678;PMS5003;67994;59.334;13.528;2024-03-02T02:15:00;26.2;20.3;
78678;PMS5003;67994;59.334;13.528;2024-03-02T02:16:04;26.2;20.3;
78678;PMS5003;67994;59.334;13.528;2024-03-02T02:17:00;26.2;20.3;
78678;PMS5003;67994;59.334;13.528;2024-03-02T02:18:01;27.9;24.0;
78678;PMS5003;67994;59.334;13.528;2024-03-02T02:19:00;27.9;24.0;
78678;PMS5003;67994;59.334;13.528;2024-03-02T02:20:00;27.9;24.0;
78678;PMS5003;67994;59.334;13.528;2024-03-02T02:21:00;27.9;24.0;
78678;PMS5003;67994;59.334;13.528;2024-03-02T02:22:00;27.9;24.0;
78678;PMS5003;67994;59.334;13.528;2024-03-02T02:23:01;29.2;23.5;
78678;PMS5003;67994;59.334;13.528;2024-03-02T02:24:00;29.2;23.5;
78678;PMS5003;67994;59.334;13.528;2024-03-02T02:25:00;29.2;23.5;
78678;PMS5003;67994;59.334;13.528;2024-03-02T02:26:00;29.2;23.5;
78678;PMS5003;67994;59.334;13.528;2024-03-02T02:27:00;29.2;23.5;
78678;PMS5003;67994;59.334;13.528;2024-03-02T02:28:01;28.0;21.0;
78678;PMS5003;67994;59.334;13.528;2024-03-02T02:29:00;28.0;21.0;
78678;PMS5003;67994;59.334;13.528;2024-03-02T02:30:00;28.0;21.0;
78678;PMS5003;67994;59.334;13.528;2024-03-02T02:31:01;28.0;21.0;
78678;PMS5003;67994;59.334;13.528;2024-03-02T02:32:00;28.0;21.0;
78678;PMS5003;67994;59.334;13.528;2024-03-02T02:33:01;25.3;19.8;
78678;PMS5003;67994;59.334;13.528;2024-03-02T02:34:01;25.3;19.8;
78678;PMS5003;67994;59.334;13.528;2024-03-02T02:35:00;25.3;19.8;
78678;PMS5003;67994;59.334;13.528;2024-03-02T02:36:00;25.3;19.8;
78678;PMS5003;67994;59.334;13.528;2024-03-02T02:37:00;25.3;19.8;
78678;PMS5003;67994;59.334;13.528;2024-03-02T02:38:00;25.8;19.2;
78678;PMS5003;67994;59.334;13.528;2024-03-02T02:39:01;25.8;19.2;
78678;PMS5003;67994;59.334;13.528;2024-03-02T02:40:00;25.8;19.2;
78678;PMS5003;67994;59.334;13.528;2024-03-02T02:41:00;25.8;19.2;
78678;PMS5003;67994;59.334;13.528;2024-03-02T02:42:00;25.8;19.2;
78678;PMS5003;67994;59.334;13.528;2024-03-02T02:43:00;34.2;26.2;
78678;PMS5003;67994;59.334;13.528;2024-03-02T02:44:00;34.2;26.2;
78678;PMS5003;67994;59.334;13.528;2024-03-02T02:45:00;34.2;26.2;
78678;PMS5003;67994;59.334;13.528;2024-03-02T02:46:00;34.2;26.2;
78678;PMS5003;67994;59.334;13.528;2024-03-02T02:47:00;34.2;26.2;
78678;PMS5003;67994;59.334;13.528;2024-03-02T02:48:00;26.1;20.2;
78678;PMS5003;67994;59.334;13.528;2024-03-02T02:49:00;26.1;20.2;
78678;PMS5003;67994;59.334;13.528;2024-03-02T02:51:00;26.1;20.2;
78678;PMS5003;67994;59.334;13.528;2024-03-02T02:52:00;26.1;20.2;
78678;PMS5003;67994;59.334;13.528;2024-03-02T02:53:00;23.5;21.6;
78678;PMS5003;67994;59.334;13.528;2024-03-02T02:54:00;23.5;21.6;
78678;PMS5003;67994;59.334;13.528;2024-03-02T02:55:00;23.5;21.6;
78678;PMS5003;67994;59.334;13.528;2024-03-02T02:56:00;23.5;21.6;
78678;PMS5003;67994;59.334;13.528;2024-03-02T02:57:00;23.5;21.6;
78678;PMS5003;67994;59.334;13.528;2024-03-02T02:58:01;31.2;21.7;
78678;PMS5003;67994;59.334;13.528;2024-03-02T02:59:01;31.2;21.7;
78678;PMS5003;67994;59.334;13.528;2024-03-02T03:00:01;31.2;21.7;
78678;PMS5003;67994;59.334;13.528;2024-03-02T03:01:00;31.2;21.7;
78678;PMS5003;67994;59.334;13.528;2024-03-02T03:02:00;31.2;21.7;
78678;PMS5003;67994;59.334;13.528;2024-03-02T03:03:00;30.1;24.4;
78678;PMS5003;67994;59.334;13.528;2024-03-02T03:04:00;30.1;24.4;
78678;PMS5003;67994;59.334;13.528;2024-03-02T03:05:00;30.1;24.4;
78678;PMS5003;67994;59.334;13.528;2024-03-02T03:06:00;30.1;24.4;
78678;PMS5003;67994;59.334;13.528;2024-03-02T03:07:00;30.1;24.4;
78678;PMS5003;67994;59.334;13.528;2024-03-02T03:08:00;32.3;27.0;
78678;PMS5003;67994;59.334;13.528;2024-03-02T03:09:00;32.3;27.0;
78678;PMS5003;67994;59.334;13.528;2024-03-02T03:10:00;32.3;27.0;
78678;PMS5003;67994;59.334;13.528;2024-03-02T03:11:00;32.3;27.0;
78678;PMS5003;67994;59.334;13.528;2024-03-02T03:12:00;32.3;27.0;
78678;PMS5003;67994;59.334;13.528;2024-03-02T03:13:00;28.3;19.5;
78678;PMS5003;67994;59.334;13.528;2024-03-02T03:14:00;28.3;19.5;
78678;PMS5003;67994;59.334;13.528;2024-03-02T03:15:00;28.3;19.5;
78678;PMS5003;67994;59.334;13.528;2024-03-02T03:16:00;28.3;19.5;
78678;PMS5003;67994;59.334;13.528;2024-03-02T03:17:00;28.3;19.5;
78678;PMS5003;67994;59.334;13.528;2024-03-02T03:18:00;22.2;18.7;
78678;PMS5003;67994;59.334;13.528;2024-03-02T03:19:00;22.2;18.7;
78678;PMS5003;67994;59.334;13.528;2024-03-02T03:20:00;22.2;18.7;
78678;PMS5003;67994;59.334;13.528;2024-03-02T03:21:00;22.2;18.7;
78678;PMS5003;67994;59.334;13.528;2024-03-02T03:22:00;22.2;18.7;
78678;PMS5003;67994;59.334;13.528;2024-03-02T03:23:00;25.2;21.4;
78678;PMS5003;67994;59.334;13.528;2024-03-02T03:24:00;25.2;21.4;
78678;PMS5003;67994;59.334;13.528;2024-03-02T03:25:00;25.2;21.4;
78678;PMS5003;67994;59.334;13.528;2024-03-02T03:26:00;25.2;21.4;
78678;PMS5003;67994;59.334;13.528;2024-03-02T03:27:01;25.2;21.4;
78678;PMS5003;67994;59.334;13.528;2024-03-02T03:28:00;26.7;21.3;
78678;PMS5003;67994;59.334;13.528;2024-03-02T03:29:00;26.7;21.3;
78678;PMS5003;67994;59.334;13.528;2024-03-02T03:30:00;26.7;21.3;
78678;PMS5003;67994;59.334;13.528;2024-03-02T03:31:00;26.7;21.3;
78678;PMS5003;67994;59.334;13.528;2024-03-02T03:32:01;26.7;21.3;
78678;PMS5003;67994;59.334;13.528;2024-03-02T03:33:00;31.2;26.4;
78678;PMS5003;67994;59.334;13.528;2024-03-02T03:34:00;31.2;26.4;
78678;PMS5003;67994;59.334;13.528;2024-03-02T03:35:00;31.2;26.4;
78678;PMS5003;67994;59.334;13.528;2024-03-02T03:36:00;31.2;26.4;
78678;PMS5003;67994;59.334;13.528;2024-03-02T03:37:01;31.2;26.4;
78678;PMS5003;67994;59.334;13.528;2024-03-02T03:38:00;21.7;18.4;
78678;PMS5003;67994;59.334;13.528;2024-03-02T03:39:00;21.7;18.4;
78678;PMS5003;67994;59.334;13.528;2024-03-02T03:40:01;21.7;18.4;
78678;PMS5003;67994;59.334;13.528;2024-03-02T03:41:00;21.7;18.4;
78678;PMS5003;67994;59.334;13.528;2024-03-02T03:42:00;21.7;18.4;
78678;PMS5003;67994;59.334;13.528;2024-03-02T03:43:00;30.0;22.2;
78678;PMS5003;67994;59.334;13.528;2024-03-02T03:44:01;30.0;22.2;
78678;PMS5003;67994;59.334;13.528;2024-03-02T03:45:00;30.0;22.2;
78678;PMS5003;67994;59.334;13.528;2024-03-02T03:46:00;30.0;22.2;
78678;PMS5003;67994;59.334;13.528;2024-03-02T03:47:00;30.0;22.2;
78678;PMS5003;67994;59.334;13.528;2024-03-02T03:48:00;26.5;24.1;
78678;PMS5003;67994;59.334;13.528;2024-03-02T03:49:00;26.5;24.1;
78678;PMS5003;67994;59.334;13.528;2024-03-02T03:50:00;26.5;24.1;
78678;PMS5003;67994;59.334;13.528;2024-03-02T03:51:00;26.5;24.1;
78678;PMS5003;67994;59.334;13.528;2024-03-02T03:52:00;26.5;24.1;
78678;PMS5003;67994;59.334;13.528;2024-03-02T03:53:01;28.3;19.3;
78678;PMS5003;67994;59.334;13.528;2024-03-02T03:54:01;28.3;19.3;
78678;PMS5003;67994;59.334;13.528;2024-03-02T03:55:00;28.3;19.3;
78678;PMS5003;67994;59.334;13.528;2024-03-02T03:56:00;28.3;19.3;
78678;PMS5003;67994;59.334;13.528;2024-03-02T03:57:01;28.3;19.3;
78678;PMS5003;67994;59.334;13.528;2024-03-02T03:58:00;27.7;20.4;
78678;PMS5003;67994;59.334;13.528;2024-03-02T03:59:00;27.7;20.4;
78678;PMS5003;67994;59.334;13.528;2024-03-02T04:00:01;27.7;20.4;
78678;PMS5003;67994;59.334;13.528;2024-03-02T04:01:01;27.7;20.4;
78678;PMS5003;67994;59.334;13.528;2024-03-02T04:02:00;27.7;20.4;
78678;PMS5003;67994;59.334;13.528;2024-03-02T04:03:00;26.4;23.8;
78678;PMS5003;67994;59.334;13.528;2024-03-02T04:04:00;26.4;23.8;
78678;PMS5003;67994;59.334;13.528;2024-03-02T04:05:00;26.4;23.8;
78678;PMS5003;67994;59.334;13.528;2024-03-02T04:06:00;26.4;23.8;
78678;PMS5003;67994;59.334;13.528;2024-03-02T04:07:00;26.4;23.8;
78678;PMS5003;67994;59.334;13.528;2024-03-02T04:08:00;24.6;18.6;
78678;PMS5003;67994;59.334;13.528;2024-03-02T04:09:00;24.6;18.6;
78678;PMS5003;67994;59.334;13.528;2024-03-02T04:10:01;24.6;18.6;
78678;PMS5003;67994;59.334;13.528;2024-03-02T04:11:01;24.6;18.6;
78678;PMS5003;67994;59.334;13.528;2024-03-02T04:12:01;24.6;18.6;
78678;PMS5003;67994;59.334;13.528;2024-03-02T04:13:01;35.8;27.4;
78678;PMS5003;67994;59.334;13.528;2024-03-02T04:14:00;35.8;27.4;
78678;PMS5003;67994;59.334;13.528;2024-03-02T04:15:00;35.8;27.4;
78678;PMS5003;67994;59.334;13.528;2024-03-02T04:16:01;35.8;27.4;
78678;PMS5003;67994;59.334;13.528;2024-03-02T04:17:00;35.8;27.4;
78678;PMS5003;67994;59.334;13.528;2024-03-02T04:18:00;27.6;23.8;
78678;PMS5003;67994;59.334;13.528;2024-03-02T04:19:00;27.6;23.8;
78678;PMS5003;67994;59.334;13.528;2024-03-02T04:20:01;27.6;23.8;
78678;PMS5003;67994;59.334;13.528;2024-03-02T04:21:00;27.6;23.8;
78678;PMS5003;67994;59.334;13.528;2024-03-02T04:22:00;27.6;23.8;
78678;PMS5003;67994;59.334;13.528;2024-03-02T04:23:00;23.8;18.1;
78678;PMS5003;67994;59.334;13.528;2024-03-02T04:24:00;23.8;18.1;
78678;PMS5003;67994;59.334;13.528;2024-03-02T04:25:00;23.8;18.1;
78678;PMS5003;67994;59.334;13.528;2024-03-02T04:26:00;23.8;18.1;
78678;PMS5003;67994;59.334;13.528;2024-03-02T04:27:00;23.8;18.1;
78678;PMS5003;67994;59.334;13.528;2024-03-02T04:28:00;28.9;22.0;
78678;PMS5003;67994;59.334;13.528;2024-03-02T04:29:00;28.9;22.0;
78678;PMS5003;67994;59.334;13.528;2024-03-02T04:30:01;28.9;22.0;
78678;PMS5003;67994;59.334;13.528;2024-03-02T04:31:00;28.9;22.0;
78678;PMS5003;67994;59.334;13.528;2024-03-02T04:32:00;28.9;22.0;
78678;PMS5003;67994;59.334;13.528;2024-03-02T04:33:00;23.5;18.7;
78678;PMS5003;67994;59.334;13.528;2024-03-02T04:34:00;23.5;18.7;
78678;PMS5003;67994;59.334;13.528;2024-03-02T04:35:00;23.5;18.7;
78678;PMS5003;67994;59.334;13.528;2024-03-02T04:36:00;23.5;18.7;
78678;PMS5003;67994;59.334;13.528;2024-03-02T04:37:00;23.5;18.7;
78678;PMS5003;67994;59.334;13.528;2024-03-02T04:38:00;27.1;27.1;
78678;PMS5003;67994;59.334;13.528;2024-03-02T04:39:00;27.1;27.1;
78678;PMS5003;67994;59.334;13.528;2024-03-02T04:40:00;27.1;27.1;
78678;PMS5003;67994;59.334;13.528;2024-03-02T04:41:00;27.1;27.1;
78678;PMS5003;67994;59.334;13.528;2024-03-02T04:42:00;27.1;27.1;
78678;PMS5003;67994;59.334;13.528;2024-03-02T04:43:00;31.6;24.1;
78678;PMS5003;67994;59.334;13.528;2024-03-02T04:44:00;31.6;24.1;
78678;PMS5003;67994;59.334;13.528;2024-03-02T04:45:01;31.6;24.1;
78678;PMS5003;67994;59.334;13.528;2024-03-02T04:46:00;31.6;24.1;
78678;PMS5003;67994;59.334;13.528;2024-03-02T04:47:01;31.6;24.1;
78678;PMS5003;67994;59.334;13.528;2024-03-02T04:48:01;31.8;22.2;
78678;PMS5003;67994;59.334;13.528;2024-03-02T04:49:00;31.8;22.2;
78678;PMS5003;67994;59.334;13.528;2024-03-02T04:50:00;31.8;22.2;
78678;PMS5003;67994;59.334;13.528;2024-03-02T04:51:00;31.8;22.2;
78678;PMS5003;67994;59.334;13.528;2024-03-02T04:52:00;31.8;22.2;
78678;PMS5003;67994;59.334;13.528;2024-03-02T04:53:00;35.9;30.7;
78678;PMS5003;67994;59.334;13.528;2024-03-02T04:54:00;35.9;30.7;
78678;PMS5003;67994;59.334;13.528;2024-03-02T04:55:00;35.9;30.7;
78678;PMS5003;67994;59.334;13.528;2024-03-02T04:56:00;35.9;30.7;
78678;PMS5003;67994;59.334;13.528;2024-03-02T04:57:00;35.9;30.7;
78678;PMS5003;67994;59.334;13.528;2024-03-02T04:58:00;30.6;23.4;
78678;PMS5003;67994;59.334;13.528;2024-03-02T04:59:00;30.6;23.4;
78678;PMS5003;67994;59.334;13.528;2024-03-02T05:00:00;30.6;23.4;
78678;PMS5003;67994;59.334;13.528;2024-03-02T05:01:00;30.6;23.4;
78678;PMS5003;67994;59.334;13.528;2024-03-02T05:02:00;30.6;23.4;
78678;PMS5003;67994;59.334;13.528;2024-03-02T05:03:00;37.4;33.7;
78678;PMS5003;67994;59.334;13.528;2024-03-02T05:04:00;37.4;33.7;
78678;PMS5003;67994;59.334;13.528;2024-03-02T05:05:00;37.4;33.7;
78678;PMS5003;67994;59.334;13.528;2024-03-02T05:06:00;37.4;33.7;
78678;PMS5003;67994;59.334;13.528;2024-03-02T05:07:00;37.4;33.7;
78678;PMS5003;67994;59.334;13.528;2024-03-02T05:08:00;33.6;25.6;
78678;PMS5003;67994;59.334;13.528;2024-03-02T05:09:00;33.6;25.6;
78678;PMS5003;67994;59.334;13.528;2024-03-02T05:10:00;33.6;25.6;
78678;PMS5003;67994;59.334;13.528;2024-03-02T05:11:01;33.6;25.6;
78678;PMS5003;67994;59.334;13.528;2024-03-02T05:12:00;33.6;25.6;
78678;PMS5003;67994;59.334;13.528;2024-03-02T05:13:00;31.9;27.0;
78678;PMS5003;67994;59.334;13.528;2024-03-02T05:14:00;31.9;27.0;
78678;PMS5003;67994;59.334;13.528;2024-03-02T05:15:00;31.9;27.0;
78678;PMS5003;67994;59.334;13.528;2024-03-02T05:16:00;31.9;27.0;
78678;PMS5003;67994;59.334;13.528;2024-03-02T05:17:00;31.9;27.0;
78678;PMS5003;67994;59.334;13.528;2024-03-02T05:18:00;34.6;27.6;
78678;PMS5003;67994;59.334;13.528;2024-03-02T05:19:00;34.6;27.6;
78678;PMS5003;67994;59.334;13.528;2024-03-02T05:20:00;34.6;27.6;
78678;PMS5003;67994;59.334;13.528;2024-03-02T05:21:00;34.6;27.6;
78678;PMS5003;67994;59.334;13.528;2024-03-02T05:22:00;34.6;27.6;
78678;PMS5003;67994;59.334;13.528;2024-03-02T05:23:00;28.2;21.9;
78678;PMS5003;67994;59.334;13.528;2024-03-02T05:24:00;28.2;21.9;
78678;PMS5003;67994;59.334;13.528;2024-03-02T05:25:00;28.2;21.9;
78678;PMS5003;67994;59.334;13.528;2024-03-02T05:26:00;28.2;21.9;
78678;PMS5003;67994;59.334;13.528;2024-03-02T05:27:00;28.2;21.9;
78678;PMS5003;67994;59.334;13.528;2024-03-02T05:28:00;24.6;22.9;
78678;PMS5003;67994;59.334;13.528;2024-03-02T05:29:00;24.6;22.9;
78678;PMS5003;67994;59.334;13.528;2024-03-02T05:30:00;24.6;22.9;
78678;PMS5003;67994;59.334;13.528;2024-03-02T05:31:00;24.6;22.9;
78678;PMS5003;67994;59.334;13.528;2024-03-02T05:32:00;24.6;22.9;
78678;PMS5003;67994;59.334;13.528;2024-03-02T05:33:00;27.9;21.1;
78678;PMS5003;67994;59.334;13.528;2024-03-02T05:34:00;27.9;21.1;
78678;PMS5003;67994;59.334;13.528;2024-03-02T05:35:00;27.9;21.1;
78678;PMS5003;67994;59.334;13.528;2024-03-02T05:36:00;27.9;21.1;
78678;PMS5003;67994;59.334;13.528;2024-03-02T05:37:00;27.9;21.1;
78678;PMS5003;67994;59.334;13.528;2024-03-02T05:38:00;29.7;23.8;
78678;PMS5003;67994;59.334;13.528;2024-03-02T05:39:00;29.7;23.8;
78678;PMS5003;67994;59.334;13.528;2024-03-02T05:40:00;29.7;23.8;
78678;PMS5003;67994;59.334;13.528;2024-03-02T05:41:00;29.7;23.8;
78678;PMS5003;67994;59.334;13.528;2024-03-02T05:42:00;29.7;23.8;
78678;PMS5003;67994;59.334;13.528;2024-03-02T05:43:00;31.8;25.2;
78678;PMS5003;67994;59.334;13.528;2024-03-02T05:44:00;31.8;25.2;
78678;PMS5003;67994;59.334;13.528;2024-03-02T05:45:00;31.8;25.2;
78678;PMS5003;67994;59.334;13.528;2024-03-02T05:46:00;31.8;25.2;
78678;PMS5003;67994;59.334;13.528;2024-03-02T05:47:00;31.8;25.2;
78678;PMS5003;67994;59.334;13.528;2024-03-02T05:48:00;24.3;23.2;
78678;PMS5003;67994;59.334;13.528;2024-03-02T05:49:00;24.3;23.2;
78678;PMS5003;67994;59.334;13.528;2024-03-02T05:50:00;24.3;23.2;
78678;PMS5003;67994;59.334;13.528;2024-03-02T05:51:01;24.3;23.2;
78678;PMS5003;67994;59.334;13.528;2024-03-02T05:52:00;24.3;23.2;
78678;PMS5003;67994;59.334;13.528;2024-03-02T05:53:00;33.2;28.8;
78678;PMS5003;67994;59.334;13.528;2024-03-02T05:54:00;33.2;28.8;
78678;PMS5003;67994;59.334;13.528;2024-03-02T05:55:00;33.2;28.8;
78678;PMS5003;67994;59.334;13.528;2024-03-02T05:56:00;33.2;28.8;
78678;PMS5003;67994;59.334;13.528;2024-03-02T05:57:00;33.2;28.8;
78678;PMS5003;67994;59.334;13.528;2024-03-02T05:58:00;19.6;16.6;
78678;PMS5003;67994;59.334;13.528;2024-03-02T05:59:00;19.6;16.6;
78678;PMS5003;67994;59.334;13.528;2024-03-02T06:00:00;19.6;16.6;
78678;PMS5003;67994;59.334;13.528;2024-03-02T06:01:00;19.6;16.6;
78678;PMS5003;67994;59.334;13.528;2024-03-02T06:02:00;19.6;16.6;
78678;PMS5003;67994;59.334;13.528;2024-03-02T06:03:00;32.1;31.2;
78678;PMS5003;67994;59.334;13.528;2024-03-02T06:04:00;32.1;31.2;
78678;PMS5003;67994;59.334;13.528;2024-03-02T06:05:00;32.1;31.2;
78678;PMS5003;67994;59.334;13.528;2024-03-02T06:06:00;32.1;31.2;
78678;PMS5003;67994;59.334;13.528;2024-03-02T06:07:00;32.1;31.2;
78678;PMS5003;67994;59.334;13.528;2024-03-02T06:08:00;30.0;23.4;